createdAt,value
2018-09-03T00:00:49.119Z,8.70
2018-09-03T00:03:18.067Z,7.57
2018-09-03T00:05:47.010Z,8.53
2018-09-03T00:08:16.226Z,15.90
2018-09-03T00:10:45.274Z,9.30
2018-09-03T00:13:14.144Z,8.63
2018-09-03T00:15:43.068Z,9.83
2018-09-03T00:18:11.987Z,10.27
2018-09-03T00:20:40.920Z,8.03
2018-09-03T00:23:09.894Z,10.77
2018-09-03T00:25:38.810Z,12.80
2018-09-03T00:28:07.751Z,11.70
2018-09-03T00:30:36.721Z,8.93
2018-09-03T00:35:14.126Z,9.53
2018-09-03T00:37:48.565Z,11.47
2018-09-03T00:40:22.798Z,10.73
2018-09-03T00:42:57.027Z,11.57
2018-09-03T00:45:31.334Z,10.87
2018-09-03T00:48:01.740Z,9.60
2018-09-03T00:50:30.662Z,12.43
2018-09-03T00:52:59.579Z,10.37
2018-09-03T00:55:28.518Z,11.83
2018-09-03T00:57:57.487Z,11.47
2018-09-03T01:00:26.422Z,12.37
2018-09-03T01:02:55.390Z,10.27
2018-09-03T01:05:24.334Z,11.53
2018-09-03T01:07:53.303Z,13.57
2018-09-03T01:10:22.256Z,10.90
2018-09-03T01:12:51.202Z,17.37
2018-09-03T01:15:20.134Z,10.27
2018-09-03T01:17:49.058Z,11.37
2018-09-03T01:20:17.982Z,9.70
2018-09-03T01:22:46.915Z,12.87
2018-09-03T01:25:15.858Z,12.63
2018-09-03T01:27:44.771Z,10.93
2018-09-03T01:30:13.706Z,11.43
2018-09-03T01:32:42.666Z,11.30
2018-09-03T01:35:11.587Z,12.90
2018-09-03T01:37:40.550Z,12.13
2018-09-03T01:40:09.503Z,10.60
2018-09-03T01:42:38.467Z,11.03
2018-09-03T01:45:07.429Z,12.10
2018-09-03T01:47:36.338Z,12.20
2018-09-03T01:50:05.325Z,10.27
2018-09-03T01:52:34.279Z,12.00
2018-09-03T01:55:03.214Z,12.50
2018-09-03T01:57:32.186Z,10.03
2018-09-03T02:00:01.110Z,11.33
2018-09-03T02:02:30.051Z,13.60
2018-09-03T02:04:58.988Z,12.03
2018-09-03T02:07:27.902Z,11.77
2018-09-03T02:09:56.879Z,12.43
2018-09-03T02:12:25.854Z,13.57
2018-09-03T02:14:55.023Z,9.90
2018-09-03T02:17:23.899Z,9.00
2018-09-03T02:19:52.835Z,10.57
2018-09-03T02:22:21.780Z,13.70
2018-09-03T02:24:50.739Z,11.77
2018-09-03T02:27:19.682Z,12.33
2018-09-03T02:29:48.627Z,11.40
2018-09-03T02:32:17.562Z,13.00
2018-09-03T02:34:46.504Z,13.40
2018-09-03T02:37:15.482Z,17.50
2018-09-03T02:39:44.442Z,11.17
2018-09-03T02:42:13.395Z,11.33
2018-09-03T02:44:42.326Z,14.00
2018-09-03T02:47:11.317Z,12.60
2018-09-03T02:49:40.283Z,11.20
2018-09-03T02:52:09.218Z,10.97
2018-09-03T02:54:38.419Z,12.50
2018-09-03T02:57:07.343Z,13.93
2018-09-03T02:59:36.277Z,14.10
2018-09-03T03:02:05.291Z,15.80
2018-09-03T03:04:34.221Z,12.67
2018-09-03T03:07:03.155Z,10.97
2018-09-03T03:09:32.136Z,12.00
2018-09-03T03:12:01.069Z,12.27
2018-09-03T03:14:30.043Z,13.33
2018-09-03T03:16:59.002Z,12.10
2018-09-03T03:19:27.973Z,10.70
2018-09-03T03:21:56.865Z,11.27
2018-09-03T03:24:25.811Z,11.10
2018-09-03T03:26:54.810Z,15.50
2018-09-03T03:29:23.718Z,16.17
2018-09-03T03:31:52.642Z,13.60
2018-09-03T03:34:21.587Z,14.87
2018-09-03T03:36:50.921Z,12.70
2018-09-03T03:39:19.839Z,18.10
2018-09-03T03:41:48.817Z,12.23
2018-09-03T03:44:17.731Z,12.60
2018-09-03T03:46:46.704Z,13.83
2018-09-03T03:49:15.719Z,12.87
2018-09-03T03:51:44.654Z,14.40
2018-09-03T03:54:13.594Z,13.57
2018-09-03T03:56:42.521Z,18.63
2018-09-03T03:59:11.450Z,12.27
2018-09-03T04:01:40.439Z,12.63
2018-09-03T04:04:09.378Z,12.30
2018-09-03T04:06:38.306Z,12.50
2018-09-03T04:09:08.669Z,13.03
2018-09-03T04:11:37.637Z,13.90
2018-09-03T04:14:06.866Z,14.00
2018-09-03T04:16:35.963Z,14.17
2018-09-03T04:19:05.040Z,14.33
2018-09-03T04:21:34.043Z,16.27
2018-09-03T04:24:02.999Z,15.97
2018-09-03T04:26:31.934Z,17.40
2018-09-03T04:29:00.911Z,19.10
2018-09-03T04:31:29.889Z,14.80
2018-09-03T04:33:58.829Z,14.83
2018-09-03T04:36:27.795Z,13.07
2018-09-03T04:38:57.612Z,15.03
2018-09-03T04:41:26.517Z,16.57
2018-09-03T04:43:55.487Z,14.20
2018-09-03T04:46:24.446Z,15.90
2018-09-03T04:48:53.506Z,17.07
2018-09-03T04:51:22.482Z,14.33
2018-09-03T04:53:51.450Z,14.70
2018-09-03T04:56:20.517Z,18.70
2018-09-03T04:58:49.477Z,15.70
2018-09-03T05:01:18.515Z,17.40
2018-09-03T05:03:47.473Z,14.60
2018-09-03T05:06:16.452Z,19.80
2018-09-03T05:08:45.455Z,18.03
2018-09-03T05:11:14.413Z,22.33
2018-09-03T05:13:43.314Z,20.80
2018-09-03T05:16:12.301Z,20.93
2018-09-03T05:18:41.266Z,23.03
2018-09-03T05:21:10.342Z,17.63
2018-09-03T05:23:39.297Z,15.67
2018-09-03T05:26:08.367Z,16.13
2018-09-03T05:28:37.355Z,18.50
2018-09-03T05:31:06.345Z,23.40
2018-09-03T05:33:35.272Z,25.10
2018-09-03T05:36:04.261Z,20.03
2018-09-03T05:38:33.178Z,19.00
2018-09-03T05:41:02.128Z,22.40
2018-09-03T05:43:31.056Z,19.03
2018-09-03T05:46:00.025Z,20.33
2018-09-03T05:48:29.030Z,19.03
2018-09-03T05:50:58.024Z,21.07
2018-09-03T05:53:26.972Z,20.03
2018-09-03T05:55:56.043Z,20.27
2018-09-03T05:58:25.020Z,27.93
2018-09-03T06:00:54.048Z,23.57
2018-09-03T06:03:23.019Z,21.27
2018-09-03T06:05:51.933Z,21.53
2018-09-03T06:08:20.873Z,20.63
2018-09-03T06:10:49.805Z,20.83
2018-09-03T06:13:18.730Z,22.90
2018-09-03T06:15:47.773Z,20.37
2018-09-03T06:18:16.707Z,22.20
2018-09-03T06:20:45.706Z,19.27
2018-09-03T06:23:14.710Z,22.63
2018-09-03T06:25:43.686Z,21.47
2018-09-03T06:28:12.673Z,24.40
2018-09-03T06:30:41.644Z,33.83
2018-09-03T06:33:10.639Z,20.53
2018-09-03T06:35:39.592Z,22.93
2018-09-03T06:38:08.518Z,19.87
2018-09-03T06:40:37.460Z,26.20
2018-09-03T06:43:06.414Z,22.00
2018-09-03T06:45:35.537Z,19.87
2018-09-03T06:48:04.457Z,26.50
2018-09-03T06:50:33.418Z,23.27
2018-09-03T06:53:02.381Z,23.67
2018-09-03T06:55:31.414Z,20.77
2018-09-03T06:58:00.362Z,23.70
2018-09-03T07:00:29.340Z,19.33
2018-09-03T07:02:58.454Z,27.20
2018-09-03T07:05:27.368Z,27.27
2018-09-03T07:07:56.295Z,22.83
2018-09-03T07:10:25.231Z,25.97
2018-09-03T07:12:54.148Z,25.13
2018-09-03T07:15:23.097Z,36.40
2018-09-03T07:17:52.023Z,55.67
2018-09-03T07:20:21.007Z,26.60
2018-09-03T07:22:49.950Z,22.37
2018-09-03T07:25:18.910Z,29.43
2018-09-03T07:27:47.886Z,22.33
2018-09-03T07:30:16.834Z,29.70
2018-09-03T07:32:45.782Z,23.33
2018-09-03T07:35:14.806Z,27.90
2018-09-03T07:37:43.638Z,22.60
2018-09-03T07:40:12.594Z,21.70
2018-09-03T07:42:41.553Z,23.27
2018-09-03T07:45:10.498Z,21.50
2018-09-03T07:47:39.507Z,22.73
2018-09-03T07:50:08.388Z,23.50
2018-09-03T07:52:37.351Z,28.10
2018-09-03T07:55:06.329Z,23.47
2018-09-03T07:57:35.313Z,23.67
2018-09-03T08:00:04.594Z,22.07
2018-09-03T08:02:33.554Z,21.23
2018-09-03T08:05:02.533Z,23.97
2018-09-03T08:07:31.447Z,24.90
2018-09-03T08:10:00.386Z,34.63
2018-09-03T08:12:29.296Z,21.60
2018-09-03T08:14:58.219Z,24.67
2018-09-03T08:17:27.133Z,23.90
2018-09-03T08:19:56.066Z,23.57
2018-09-03T08:22:25.027Z,25.70
2018-09-03T08:24:54.278Z,23.00
2018-09-03T08:27:23.247Z,24.30
2018-09-03T08:29:52.216Z,24.37
2018-09-03T08:32:21.182Z,26.63
2018-09-03T08:34:50.093Z,23.03
2018-09-03T08:37:19.070Z,22.10
2018-09-03T08:39:48.057Z,28.00
2018-09-03T08:42:17.826Z,24.03
2018-09-03T08:44:46.820Z,27.23
2018-09-03T08:47:15.721Z,27.40
2018-09-03T08:49:44.696Z,26.97
2018-09-03T08:52:13.618Z,23.40
2018-09-03T08:54:42.535Z,27.47
2018-09-03T08:57:11.547Z,27.47
2018-09-03T08:59:40.495Z,31.87
2018-09-03T09:02:09.462Z,25.90
2018-09-03T09:04:38.408Z,27.17
2018-09-03T09:07:07.391Z,29.63
2018-09-03T09:09:36.327Z,24.23
2018-09-03T09:12:05.315Z,34.23
2018-09-03T09:14:34.189Z,30.37
2018-09-03T09:17:03.124Z,28.57
2018-09-03T09:19:32.062Z,32.70
2018-09-03T09:22:00.998Z,32.40
2018-09-03T09:24:29.920Z,34.30
2018-09-03T09:26:58.841Z,27.63
2018-09-03T09:29:27.782Z,28.20
2018-09-03T09:31:56.737Z,27.67
2018-09-03T09:34:25.702Z,27.07
2018-09-03T09:36:54.694Z,31.60
2018-09-03T09:39:23.612Z,26.00
2018-09-03T09:41:53.540Z,26.07
2018-09-03T09:44:22.493Z,28.60
2018-09-03T09:46:51.430Z,32.17
2018-09-03T09:49:20.562Z,27.83
2018-09-03T09:51:49.583Z,25.23
2018-09-03T09:54:18.564Z,25.60
2018-09-03T09:56:47.494Z,23.83
2018-09-03T09:59:16.426Z,25.33
2018-09-03T10:01:45.374Z,26.10
2018-09-03T10:04:14.306Z,21.47
2018-09-03T10:06:43.306Z,26.63
2018-09-03T10:09:12.240Z,22.97
2018-09-03T10:11:41.223Z,21.53
2018-09-03T10:14:10.146Z,21.60
2018-09-03T10:16:39.103Z,23.10
2018-09-03T10:19:08.213Z,22.57
2018-09-03T10:21:37.135Z,21.17
2018-09-03T10:24:06.055Z,24.23
2018-09-03T10:26:34.965Z,28.30
2018-09-03T10:29:04.191Z,24.80
2018-09-03T10:31:33.103Z,24.20
2018-09-03T10:34:02.025Z,25.57
2018-09-03T10:36:30.966Z,23.40
2018-09-03T10:38:59.944Z,21.90
2018-09-03T10:41:28.869Z,24.33
2018-09-03T10:43:58.105Z,27.13
2018-09-03T10:46:27.067Z,21.23
2018-09-03T10:48:56.043Z,20.73
2018-09-03T10:51:25.020Z,19.63
2018-09-03T10:53:53.965Z,22.10
2018-09-03T10:56:22.941Z,20.33
2018-09-03T10:58:51.870Z,19.77
2018-09-03T11:01:20.795Z,21.73
2018-09-03T11:03:49.727Z,20.60
2018-09-03T11:06:18.675Z,20.93
2018-09-03T11:08:47.678Z,21.10
2018-09-03T11:11:16.643Z,26.27
2018-09-03T11:13:45.588Z,19.80
2018-09-03T11:16:14.557Z,20.80
2018-09-03T11:18:43.521Z,21.93
2018-09-03T11:21:12.481Z,21.83
2018-09-03T11:23:41.385Z,23.77
2018-09-03T11:26:10.429Z,23.97
2018-09-03T11:28:39.397Z,22.27
2018-09-03T11:31:08.309Z,17.57
2018-09-03T11:33:37.217Z,26.47
2018-09-03T11:36:06.150Z,20.33
2018-09-03T11:38:35.107Z,21.23
2018-09-03T11:41:04.062Z,23.23
2018-09-03T11:43:33.091Z,19.60
2018-09-03T11:46:02.133Z,19.40
2018-09-03T11:48:31.102Z,22.13
2018-09-03T11:51:00.046Z,19.60
2018-09-03T11:53:29.063Z,21.30
2018-09-03T11:55:58.219Z,17.60
2018-09-03T11:58:27.158Z,22.73
2018-09-03T12:00:57.758Z,22.73
2018-09-03T12:03:26.707Z,22.70
2018-09-03T12:05:55.744Z,21.20
2018-09-03T12:08:24.654Z,23.00
2018-09-03T12:10:53.578Z,23.83
2018-09-03T12:13:22.497Z,23.53
2018-09-03T12:16:10.222Z,22.93
2018-09-03T12:18:40.266Z,24.27
2018-09-03T12:21:09.263Z,24.20
2018-09-03T12:23:38.201Z,26.47
2018-09-03T12:26:07.520Z,26.40
2018-09-03T12:28:36.434Z,28.43
2018-09-03T12:31:05.587Z,27.07
2018-09-03T12:33:34.689Z,26.00
2018-09-03T12:36:04.212Z,24.80
2018-09-03T12:38:33.441Z,26.07
2018-09-03T12:41:02.397Z,27.97
2018-09-03T12:43:31.386Z,26.00
2018-09-03T12:46:01.653Z,28.17
2018-09-03T12:48:31.160Z,26.00
2018-09-03T12:51:01.017Z,26.10
2018-09-03T12:53:30.438Z,27.10
2018-09-03T12:55:59.453Z,23.50
2018-09-03T12:58:28.386Z,28.30
2018-09-03T13:00:57.469Z,27.97
2018-09-03T13:03:26.285Z,31.03
2018-09-03T13:05:55.221Z,26.60
2018-09-03T13:08:24.155Z,24.33
2018-09-03T13:10:53.138Z,27.07
2018-09-03T13:13:22.092Z,26.90
2018-09-03T13:15:51.051Z,30.27
2018-09-03T13:18:19.984Z,29.23
2018-09-03T13:20:48.942Z,30.77
2018-09-03T13:23:17.840Z,30.43
2018-09-03T13:25:46.757Z,30.50
2018-09-03T13:28:15.712Z,32.83
2018-09-03T13:30:44.694Z,36.77
2018-09-03T13:33:13.686Z,38.40
2018-09-03T13:35:42.665Z,30.77
2018-09-03T13:38:11.726Z,30.87
2018-09-03T13:40:40.726Z,32.07
2018-09-03T13:43:09.686Z,35.13
2018-09-03T13:45:38.641Z,29.00
2018-09-03T13:48:07.672Z,31.27
2018-09-03T13:50:36.587Z,30.47
2018-09-03T13:53:05.523Z,29.20
2018-09-03T13:55:34.546Z,29.83
2018-09-03T13:58:03.494Z,30.57
2018-09-03T14:00:32.416Z,27.27
2018-09-03T14:03:01.338Z,33.50
2018-09-03T14:05:30.289Z,28.03
2018-09-03T14:07:59.343Z,34.10
2018-09-03T14:10:28.280Z,31.80
2018-09-03T14:12:57.211Z,29.70
2018-09-03T14:15:26.165Z,42.30
2018-09-03T14:17:55.120Z,31.60
2018-09-03T14:20:24.320Z,33.13
2018-09-03T14:22:53.270Z,34.83
2018-09-03T14:25:22.239Z,32.57
2018-09-03T14:27:51.250Z,34.33
2018-09-03T14:30:20.168Z,35.03
2018-09-03T14:32:49.132Z,34.67
2018-09-03T14:35:18.164Z,34.63
2018-09-03T14:37:47.129Z,28.50
2018-09-03T14:40:16.056Z,32.47
2018-09-03T14:42:45.194Z,36.03
2018-09-03T14:45:14.311Z,33.50
2018-09-03T14:47:43.368Z,33.33
2018-09-03T14:50:12.370Z,40.03
2018-09-03T14:52:41.812Z,32.00
2018-09-03T14:55:10.938Z,32.87
2018-09-03T14:57:40.276Z,35.10
2018-09-03T15:00:09.475Z,35.90
2018-09-03T15:02:38.796Z,35.87
2018-09-03T15:05:07.798Z,39.27
2018-09-03T15:07:36.808Z,33.90
2018-09-03T15:10:05.863Z,38.57
2018-09-03T15:12:34.782Z,39.33
2018-09-03T15:15:03.861Z,37.17
2018-09-03T15:17:32.770Z,36.50
2018-09-03T15:20:01.693Z,37.23
2018-09-03T15:22:30.623Z,35.10
2018-09-03T15:24:59.563Z,36.67
2018-09-03T15:27:28.514Z,35.77
2018-09-03T15:29:57.438Z,34.33
2018-09-03T15:32:26.611Z,36.47
2018-09-03T15:34:55.553Z,36.13
2018-09-03T15:37:24.486Z,36.60
2018-09-03T15:39:53.437Z,42.63
2018-09-03T15:42:22.381Z,37.27
2018-09-03T15:44:51.310Z,37.93
2018-09-03T15:47:20.253Z,36.23
2018-09-03T15:49:49.226Z,40.83
2018-09-03T15:52:18.126Z,40.83
2018-09-03T15:54:47.066Z,35.37
2018-09-03T15:57:16.208Z,35.90
2018-09-03T15:59:45.497Z,45.37
2018-09-03T16:02:14.482Z,35.90
2018-09-03T16:04:43.428Z,39.40
2018-09-03T16:07:12.418Z,36.27
2018-09-03T16:09:41.349Z,33.70
2018-09-03T16:12:10.278Z,38.97
2018-09-03T16:14:39.282Z,40.17
2018-09-03T16:17:08.219Z,38.07
2018-09-03T16:19:37.176Z,31.50
2018-09-03T16:22:06.159Z,35.23
2018-09-03T16:24:35.110Z,37.30
2018-09-03T16:27:04.115Z,32.60
2018-09-03T16:29:33.046Z,48.00
2018-09-03T16:32:01.983Z,32.97
2018-09-03T16:34:30.954Z,33.83
2018-09-03T16:37:00.006Z,37.53
2018-09-03T16:39:29.122Z,35.20
2018-09-03T16:41:58.177Z,33.30
2018-09-03T16:44:27.075Z,35.13
2018-09-03T16:46:56.070Z,32.77
2018-09-03T16:49:25.070Z,37.83
2018-09-03T16:51:54.010Z,35.70
2018-09-03T16:54:22.949Z,33.93
2018-09-03T16:56:51.906Z,36.37
2018-09-03T16:59:21.058Z,32.17
2018-09-03T17:01:50.045Z,33.07
2018-09-03T17:04:18.979Z,33.53
2018-09-03T17:06:47.950Z,31.17
2018-09-03T17:09:16.899Z,37.43
2018-09-03T17:11:45.862Z,32.33
2018-09-03T17:14:14.791Z,39.50
2018-09-03T17:16:43.751Z,33.10
2018-09-03T17:19:12.677Z,33.17
2018-09-03T17:21:41.603Z,34.10
2018-09-03T17:24:10.542Z,34.30
2018-09-03T17:26:39.536Z,34.43
2018-09-03T17:29:08.470Z,36.17
2018-09-03T17:31:37.399Z,30.63
2018-09-03T17:34:06.329Z,44.70
2018-09-03T17:36:35.529Z,33.83
2018-09-03T17:39:05.583Z,38.23
2018-09-03T17:41:35.572Z,31.90
2018-09-03T17:44:04.524Z,33.27
2018-09-03T17:46:33.450Z,33.10
2018-09-03T17:49:02.395Z,44.03
2018-09-03T17:51:31.319Z,38.07
2018-09-03T17:54:00.267Z,34.10
2018-09-03T17:56:29.192Z,32.73
2018-09-03T17:58:58.170Z,40.00
2018-09-03T18:01:27.097Z,38.50
2018-09-03T18:03:56.072Z,32.53
2018-09-03T18:06:25.719Z,30.87
2018-09-03T18:08:54.655Z,26.23
2018-09-03T18:11:23.715Z,28.40
2018-09-03T18:13:52.654Z,37.60
2018-09-03T18:16:21.641Z,31.73
2018-09-03T18:18:51.083Z,31.27
2018-09-03T18:21:20.035Z,35.33
2018-09-03T18:23:49.063Z,41.30
2018-09-03T18:26:18.101Z,36.97
2018-09-03T18:28:48.291Z,36.37
2018-09-03T18:31:17.880Z,33.57
2018-09-03T18:33:47.211Z,35.93
2018-09-03T18:36:16.208Z,35.43
2018-09-03T18:38:45.159Z,32.43
2018-09-03T18:41:14.156Z,33.00
2018-09-03T18:43:43.068Z,38.00
2018-09-03T18:46:12.018Z,34.73
2018-09-03T18:48:40.966Z,43.53
2018-09-03T18:51:11.310Z,34.20
2018-09-03T18:53:42.128Z,36.57
2018-09-03T18:56:11.192Z,41.73
2018-09-03T18:58:40.219Z,36.77
2018-09-03T19:01:09.222Z,40.73
2018-09-03T19:03:38.154Z,34.97
2018-09-03T19:06:08.264Z,37.27
2018-09-03T19:08:37.210Z,36.10
2018-09-03T19:11:06.161Z,35.30
2018-09-03T19:13:35.274Z,38.80
2018-09-03T19:16:04.342Z,38.90
2018-09-03T19:18:33.407Z,35.00
2018-09-03T19:21:02.365Z,36.80
2018-09-03T19:23:31.416Z,37.30
2018-09-03T19:26:00.586Z,36.63
2018-09-03T19:28:29.621Z,35.60
2018-09-03T19:30:58.712Z,34.60
2018-09-03T19:33:27.652Z,32.30
2018-09-03T19:35:56.725Z,43.57
2018-09-03T19:38:25.639Z,43.37
2018-09-03T19:40:54.768Z,35.93
2018-09-03T19:43:23.685Z,34.27
2018-09-03T19:45:52.872Z,38.37
2018-09-03T19:48:21.815Z,42.60
2018-09-03T19:50:51.060Z,51.03
2018-09-03T19:53:20.049Z,45.80
2018-09-03T19:55:48.970Z,42.27
2018-09-03T19:58:18.018Z,46.70
2018-09-03T20:00:46.945Z,48.20
2018-09-03T20:03:15.875Z,46.30
2018-09-03T20:05:45.085Z,43.67
2018-09-03T20:08:14.043Z,38.93
2018-09-03T20:10:42.972Z,41.23
2018-09-03T20:13:12.289Z,40.83
2018-09-03T20:15:41.218Z,38.23
2018-09-03T20:18:10.150Z,38.50
2018-09-03T20:20:39.109Z,44.33
2018-09-03T20:23:08.169Z,46.90
2018-09-03T20:25:42.546Z,44.10
2018-09-03T20:28:11.495Z,44.87
2018-09-03T20:30:40.771Z,44.50
2018-09-03T20:33:09.731Z,47.30
2018-09-03T20:35:38.675Z,53.27
2018-09-03T20:38:07.613Z,56.60
2018-09-03T20:40:36.865Z,48.27
2018-09-03T20:43:05.805Z,55.47
2018-09-03T20:45:34.935Z,70.73
2018-09-03T20:48:03.934Z,60.23
2018-09-03T20:50:33.513Z,61.37
2018-09-03T20:53:02.445Z,64.60
2018-09-03T20:55:31.446Z,69.70
2018-09-03T20:58:00.396Z,60.73
2018-09-03T21:00:29.412Z,52.77
2018-09-03T21:02:58.331Z,59.30
2018-09-03T21:05:27.450Z,60.47
2018-09-03T21:07:56.444Z,70.93
2018-09-03T21:10:25.405Z,56.47
2018-09-03T21:12:54.636Z,58.17
2018-09-03T21:15:23.534Z,63.47
2018-09-03T21:17:52.554Z,59.83
2018-09-03T21:20:21.571Z,68.27
2018-09-03T21:22:50.570Z,65.77
2018-09-03T21:25:19.473Z,68.57
2018-09-03T21:27:48.441Z,60.40
2018-09-03T21:30:17.455Z,58.30
2018-09-03T21:32:46.442Z,63.97
2018-09-03T21:35:15.439Z,65.83
2018-09-03T21:37:44.385Z,69.87
2018-09-03T21:40:13.297Z,62.00
2018-09-03T21:42:42.222Z,66.40
2018-09-03T21:45:11.173Z,66.83
2018-09-03T21:47:40.119Z,70.90
2018-09-03T21:50:09.026Z,71.23
2018-09-03T21:52:37.953Z,72.73
2018-09-03T21:55:06.921Z,68.97
2018-09-03T21:57:35.854Z,79.20
2018-09-03T22:00:05.095Z,66.73
2018-09-03T22:02:34.040Z,70.83
2018-09-03T22:05:03.044Z,69.20
2018-09-03T22:07:32.007Z,78.73
2018-09-03T22:10:01.051Z,68.23
2018-09-03T22:12:30.126Z,79.10
2018-09-03T22:14:59.134Z,76.20
2018-09-03T22:17:28.074Z,90.67
2018-09-03T22:19:57.082Z,101.40
2018-09-03T22:22:25.998Z,86.07
2018-09-03T22:24:55.042Z,93.17
2018-09-03T22:27:24.058Z,89.97
2018-09-03T22:29:53.085Z,101.50
2018-09-03T22:32:22.009Z,100.53
2018-09-03T22:34:50.965Z,100.73
2018-09-03T22:37:19.954Z,94.77
2018-09-03T22:39:48.940Z,99.43
2018-09-03T22:42:17.920Z,96.90
2018-09-03T22:44:46.940Z,98.83
2018-09-03T22:47:15.901Z,100.70
2018-09-03T22:49:44.926Z,103.43
2018-09-03T22:52:13.918Z,105.30
2018-09-03T22:54:42.891Z,109.87
2018-09-03T22:57:11.819Z,100.50
2018-09-03T22:59:40.762Z,109.67
2018-09-03T23:02:09.777Z,115.97
2018-09-03T23:04:38.710Z,117.10
2018-09-03T23:07:07.638Z,107.83
2018-09-03T23:09:36.675Z,107.50
2018-09-03T23:12:05.653Z,96.93
2018-09-03T23:14:34.654Z,118.40
2018-09-03T23:17:03.730Z,105.47
2018-09-03T23:19:32.739Z,103.87
2018-09-03T23:22:02.017Z,114.20
2018-09-03T23:24:31.042Z,108.73
2018-09-03T23:26:59.945Z,114.40
2018-09-03T23:29:28.884Z,111.63
2018-09-03T23:31:57.916Z,112.03
2018-09-03T23:34:26.854Z,105.70
2018-09-03T23:36:55.802Z,106.07
2018-09-03T23:39:24.711Z,97.87
2018-09-03T23:41:53.730Z,105.00
2018-09-03T23:44:22.696Z,120.33
2018-09-03T23:46:51.667Z,102.90
2018-09-03T23:49:20.689Z,112.63
2018-09-03T23:51:49.645Z,123.43
2018-09-03T23:54:18.668Z,108.03
2018-09-03T23:56:47.612Z,111.77
2018-09-03T23:59:16.537Z,121.97
